Time;durP1;ratioP1;P1;durP2;ratioP2;P2;SDS_P1;SDS_P2;PMS_P1;PMS_P2;Temp;Humidity;BMP_temperature;BMP_pressure;BME280_temperature;BME280_humidity;BME280_pressure;Samples;Min_cycle;Max_cycle;Signal;HPM_P1;HPM_P2
2023/03/09 00:00:17;;;;;;;1.80;0.80;;;;;;;7.98;100.00;93502.06;4984893;28;20780;-75
2023/03/09 00:02:43;;;;;;;2.75;0.90;;;;;;;7.90;100.00;93507.09;4986274;28;24444;-75
2023/03/09 00:05:12;;;;;;;2.90;1.23;;;;;;;7.90;100.00;93509.66;4989794;28;24445;-75
2023/03/09 00:07:38;;;;;;;4.68;1.20;;;;;;;7.98;100.00;93512.38;4990651;28;24440;-76
2023/03/09 00:10:07;;;;;;;3.38;1.05;;;;;;;7.99;100.00;93527.69;4990011;28;24441;-75
2023/03/09 00:12:33;;;;;;;1.55;0.60;;;;;;;8.04;100.00;93519.53;4983814;28;25057;-75
2023/03/09 00:15:00;;;;;;;0.98;0.70;;;;;;;8.17;100.00;93524.44;4991150;28;24837;-75
2023/03/09 00:17:26;;;;;;;0.97;0.40;;;;;;;8.31;100.00;93536.91;4984783;28;24437;-75
2023/03/09 00:20:00;;;;;;;1.10;0.65;;;;;;;8.38;100.00;93511.41;4990877;28;20784;-75
2023/03/09 00:22:27;;;;;;;1.70;0.40;;;;;;;8.33;100.00;93526.44;4989544;28;21016;-75
2023/03/09 00:24:55;;;;;;;1.02;0.38;;;;;;;8.30;100.00;93540.44;4990348;28;24436;-75
2023/03/09 00:27:23;;;;;;;1.38;0.40;;;;;;;8.28;100.00;93544.13;4982486;28;24488;-75
2023/03/09 00:29:50;;;;;;;0.90;0.33;;;;;;;8.52;100.00;93569.50;4981839;28;20817;-76
2023/03/09 00:32:16;;;;;;;4.70;0.60;;;;;;;8.42;100.00;93579.84;4984789;28;20776;-75
2023/03/09 00:34:42;;;;;;;1.15;0.30;;;;;;;8.32;100.00;93579.81;4987268;28;20776;-75
2023/03/09 00:37:09;;;;;;;0.43;0.10;;;;;;;8.31;100.00;93585.91;4980037;28;24429;-75
2023/03/09 00:39:35;;;;;;;1.42;0.30;;;;;;;8.25;100.00;93589.03;4983882;28;20815;-76
2023/03/09 00:42:02;;;;;;;0.90;0.30;;;;;;;8.29;100.00;93574.91;4989410;28;24967;-75
2023/03/09 00:44:30;;;;;;;0.45;0.20;;;;;;;8.20;100.00;93593.78;4989646;28;25026;-75
2023/03/09 00:46:56;;;;;;;0.30;0.20;;;;;;;8.08;100.00;93569.06;4988091;28;24788;-75
2023/03/09 00:49:23;;;;;;;0.30;0.22;;;;;;;8.16;100.00;93574.38;4988077;28;24830;-75
2023/03/09 00:51:49;;;;;;;0.80;0.30;;;;;;;8.05;100.00;93570.16;4983608;28;24436;-74
2023/03/09 00:54:16;;;;;;;0.68;0.20;;;;;;;8.10;100.00;93587.81;4985687;28;24437;-75
2023/03/09 00:56:43;;;;;;;0.98;0.30;;;;;;;7.89;100.00;93611.91;4986213;28;20782;-75
2023/03/09 00:59:10;;;;;;;0.90;0.35;;;;;;;7.73;100.00;93609.84;4987000;28;24472;-77
2023/03/09 01:01:38;;;;;;;1.20;0.25;;;;;;;7.67;100.00;93599.25;4990230;28;24440;-75
2023/03/09 01:04:04;;;;;;;1.30;0.30;;;;;;;7.59;100.00;93586.22;4987933;28;24440;-75
2023/03/09 01:06:31;;;;;;;0.73;0.22;;;;;;;7.44;100.00;93550.53;4989478;28;24461;-75
2023/03/09 01:08:58;;;;;;;0.60;0.20;;;;;;;7.48;100.00;93562.19;4986038;28;24464;-75
2023/03/09 01:11:24;;;;;;;0.35;0.17;;;;;;;7.50;100.00;93562.09;4984638;28;24437;-75
2023/03/09 01:13:52;;;;;;;0.60;0.20;;;;;;;7.38;100.00;93556.22;4982472;28;24440;-75
2023/03/09 01:16:19;;;;;;;0.68;0.30;;;;;;;7.44;100.00;93560.84;4987051;28;25002;-75
2023/03/09 01:18:46;;;;;;;0.28;0.20;;;;;;;7.38;100.00;93566.53;4981655;28;24500;-76
2023/03/09 01:21:13;;;;;;;0.93;0.25;;;;;;;7.27;100.00;93564.88;4990586;28;20792;-76
2023/03/09 01:23:40;;;;;;;1.00;0.30;;;;;;;7.30;100.00;93580.97;4980785;28;24832;-76
2023/03/09 01:26:07;;;;;;;0.57;0.30;;;;;;;7.27;100.00;93579.50;4990157;28;24967;-76
2023/03/09 01:28:35;;;;;;;1.13;0.38;;;;;;;7.33;100.00;93576.38;4988043;28;20853;-77
2023/03/09 01:31:01;;;;;;;1.27;0.40;;;;;;;7.37;100.00;93590.63;4987676;28;24487;-77
2023/03/09 01:33:28;;;;;;;1.00;0.30;;;;;;;7.38;100.00;93589.69;4986244;28;24465;-76
2023/03/09 01:35:56;;;;;;;1.65;0.55;;;;;;;7.38;100.00;93568.25;4986025;28;24460;-75
2023/03/09 01:38:22;;;;;;;0.73;0.35;;;;;;;7.43;100.00;93569.50;4989959;28;20932;-74
2023/03/09 01:40:48;;;;;;;0.93;0.32;;;;;;;7.40;100.00;93581.84;4986806;28;20787;-77
2023/03/09 01:43:28;;;;;;;0.60;0.30;;;;;;;7.40;100.00;93576.69;4989595;28;24998;-77
2023/03/09 01:46:28;;;;;;;1.50;0.47;;;;;;;7.45;100.00;93579.66;4983794;28;20694;-77
2023/03/09 01:48:59;;;;;;;1.77;0.40;;;;;;;7.46;100.00;93612.22;4989785;28;24441;-76
2023/03/09 01:51:31;;;;;;;1.10;0.30;;;;;;;7.38;100.00;93591.44;4989728;28;20779;-77
2023/03/09 01:53:59;;;;;;;1.77;0.60;;;;;;;7.29;100.00;93559.56;4983112;28;20689;-77
2023/03/09 01:56:28;;;;;;;0.90;0.20;;;;;;;7.15;100.00;93547.88;4993225;28;20776;-75
2023/03/09 01:58:56;;;;;;;0.40;0.20;;;;;;;7.14;100.00;93537.72;4990102;28;24600;-75
2023/03/09 02:01:23;;;;;;;4.72;0.30;;;;;;;7.07;100.00;93528.88;4987287;28;24437;-74
2023/03/09 02:03:55;;;;;;;0.60;0.10;;;;;;;7.06;100.00;93533.22;4988498;28;20911;-75
2023/03/09 02:06:23;;;;;;;0.28;0.10;;;;;;;6.95;100.00;93544.41;4989031;28;20743;-75
2023/03/09 02:08:58;;;;;;;0.90;0.20;;;;;;;7.07;100.00;93539.97;4992100;28;21341;-75
2023/03/09 02:11:33;;;;;;;1.63;0.30;;;;;;;7.06;100.00;93534.97;4992497;28;20779;-75
2023/03/09 02:14:03;;;;;;;0.60;0.17;;;;;;;7.11;100.00;93523.31;4992086;28;24437;-75
2023/03/09 02:16:31;;;;;;;1.40;0.10;;;;;;;6.97;100.00;93511.66;4985510;28;24453;-76
2023/03/09 02:18:58;;;;;;;1.30;0.30;;;;;;;6.95;100.00;93526.41;4989540;28;24465;-75
2023/03/09 02:21:35;;;;;;;0.73;0.20;;;;;;;6.97;100.00;93515.97;4993947;28;24512;-75
2023/03/09 02:24:13;;;;;;;2.60;0.20;;;;;;;7.00;100.00;93519.09;4992750;28;20662;-75
2023/03/09 02:26:47;;;;;;;1.80;0.13;;;;;;;7.12;100.00;93517.25;4991626;28;24440;-75
2023/03/09 02:32:22;;;;;;;1.77;0.10;;;;;;;7.10;100.00;93505.44;4987532;28;20937;-75
2023/03/09 02:34:48;;;;;;;0.68;0.20;;;;;;;7.22;100.00;93507.78;4993518;28;24464;-75
2023/03/09 02:40:16;;;;;;;2.58;0.70;;;;;;;7.45;100.00;93498.09;4988197;28;24464;-75
2023/03/09 02:42:44;;;;;;;0.70;0.33;;;;;;;7.41;100.00;93525.03;4988127;28;20825;-75
2023/03/09 02:45:15;;;;;;;0.80;0.30;;;;;;;7.41;100.00;93563.66;4979591;28;20765;-75
2023/03/09 02:47:41;;;;;;;1.00;0.35;;;;;;;7.39;100.00;93564.75;4988571;28;24432;-76
2023/03/09 02:50:09;;;;;;;3.83;0.30;;;;;;;7.38;100.00;93563.94;4989110;28;24448;-76
2023/03/09 02:52:36;;;;;;;0.70;0.20;;;;;;;7.41;100.00;93573.16;4990236;28;24437;-77
2023/03/09 02:55:03;;;;;;;1.20;0.30;;;;;;;7.44;100.00;93588.34;4979156;28;20816;-77
2023/03/09 02:57:29;;;;;;;0.85;0.25;;;;;;;7.38;100.00;93581.97;4984797;28;24982;-77
2023/03/09 02:59:56;;;;;;;0.65;0.22;;;;;;;7.38;100.00;93592.28;4990755;28;24457;-75
2023/03/09 03:02:24;;;;;;;1.85;0.30;;;;;;;7.38;100.00;93606.88;4994940;28;24441;-75
2023/03/09 03:04:50;;;;;;;1.00;0.30;;;;;;;7.41;100.00;93628.03;4986009;28;25191;-76
2023/03/09 03:07:17;;;;;;;0.35;0.20;;;;;;;7.34;100.00;93641.56;4991806;28;24440;-76
2023/03/09 03:09:43;;;;;;;0.83;0.23;;;;;;;7.36;100.00;93676.56;4994467;28;24445;-75
2023/03/09 03:12:10;;;;;;;0.77;0.40;;;;;;;7.37;100.00;93700.53;4987758;28;24501;-76
2023/03/09 03:14:37;;;;;;;0.40;0.08;;;;;;;7.24;100.00;93709.28;4986442;28;24448;-75
2023/03/09 03:17:03;;;;;;;1.13;0.20;;;;;;;7.07;100.00;93720.16;4991662;28;24440;-75
2023/03/09 03:19:32;;;;;;;0.47;0.17;;;;;;;6.99;100.00;93725.13;4992926;28;24460;-75
2023/03/09 03:21:58;;;;;;;0.60;0.13;;;;;;;6.82;100.00;93703.31;4993065;28;24437;-74
2023/03/09 03:24:25;;;;;;;0.70;0.30;;;;;;;6.77;100.00;93742.28;4987326;28;24433;-75
2023/03/09 03:26:52;;;;;;;0.40;0.20;;;;;;;6.68;100.00;93731.94;4991864;28;24441;-75
2023/03/09 03:29:18;;;;;;;0.85;0.32;;;;;;;6.59;100.00;93720.59;4988866;28;24444;-75
2023/03/09 03:31:44;;;;;;;0.95;0.30;;;;;;;6.55;100.00;93735.47;4989622;28;24433;-75
2023/03/09 03:34:11;;;;;;;1.45;0.50;;;;;;;6.55;100.00;93714.88;4988256;28;24433;-75
2023/03/09 03:36:39;;;;;;;3.05;0.80;;;;;;;6.60;100.00;93729.13;4988421;28;24448;-75
2023/03/09 03:39:05;;;;;;;5.40;1.10;;;;;;;6.74;100.00;93745.09;4986800;28;24469;-74
2023/03/09 03:41:32;;;;;;;3.30;1.35;;;;;;;6.71;100.00;93736.81;4989472;28;24591;-73
2023/03/09 03:43:59;;;;;;;3.13;1.02;;;;;;;6.70;100.00;93759.13;4990445;28;24504;-74
2023/03/09 03:46:25;;;;;;;2.83;0.82;;;;;;;6.64;100.00;93759.66;4985836;28;24433;-75
2023/03/09 03:48:51;;;;;;;3.83;1.13;;;;;;;6.56;100.00;93769.69;4978909;28;24445;-75
2023/03/09 03:51:18;;;;;;;4.03;1.33;;;;;;;6.55;100.00;93781.75;4985324;28;24440;-74
2023/03/09 03:53:46;;;;;;;4.50;1.20;;;;;;;6.60;100.00;93788.28;4987531;28;24441;-74
2023/03/09 03:56:12;;;;;;;4.78;1.15;;;;;;;6.61;100.00;93792.50;4985925;28;24445;-74
2023/03/09 03:58:39;;;;;;;7.55;1.70;;;;;;;6.67;100.00;93777.38;4985766;28;24525;-74
2023/03/09 04:01:06;;;;;;;6.20;1.60;;;;;;;6.69;100.00;93762.66;4988878;28;24464;-74
2023/03/09 04:03:33;;;;;;;4.45;1.40;;;;;;;6.63;100.00;93788.84;4991694;28;24441;-74
2023/03/09 04:05:59;;;;;;;7.68;1.45;;;;;;;6.61;100.00;93782.22;4989973;28;24527;-75
2023/03/09 04:08:26;;;;;;;6.70;2.20;;;;;;;6.66;100.00;93808.38;4992544;28;24440;-76
2023/03/09 04:10:54;;;;;;;6.07;1.48;;;;;;;6.62;100.00;93799.28;4991041;28;24437;-73
2023/03/09 04:13:23;;;;;;;6.32;1.80;;;;;;;6.69;100.00;93826.16;4991341;28;21298;-77
2023/03/09 04:15:49;;;;;;;9.48;2.00;;;;;;;6.67;100.00;93821.13;4990448;28;24441;-77
2023/03/09 04:18:15;;;;;;;7.63;2.28;;;;;;;6.68;100.00;93809.91;4991987;28;24784;-76
2023/03/09 04:20:43;;;;;;;8.98;1.95;;;;;;;6.65;100.00;93828.16;4991662;28;24449;-77
2023/03/09 04:23:11;;;;;;;8.70;1.98;;;;;;;6.62;100.00;93825.81;4984031;28;24448;-76
2023/03/09 04:25:37;;;;;;;7.82;2.20;;;;;;;6.70;100.00;93827.78;4986390;28;24467;-76
2023/03/09 04:28:05;;;;;;;6.35;2.30;;;;;;;6.69;100.00;93844.16;4991341;28;24485;-77
2023/03/09 04:30:32;;;;;;;6.67;2.40;;;;;;;6.62;100.00;93863.59;4995973;28;24463;-77
2023/03/09 04:32:58;;;;;;;10.80;2.47;;;;;;;6.61;100.00;93864.53;4994101;28;24435;-77
2023/03/09 04:35:25;;;;;;;9.57;2.17;;;;;;;6.63;100.00;93871.16;4987624;28;24436;-77
2023/03/09 04:37:52;;;;;;;8.07;2.00;;;;;;;6.58;100.00;93882.78;4996456;28;24440;-76
2023/03/09 04:40:19;;;;;;;8.32;2.15;;;;;;;6.56;100.00;93882.88;4992048;28;24535;-75
2023/03/09 04:42:45;;;;;;;6.57;1.92;;;;;;;6.66;100.00;93888.13;4990442;28;24796;-76
2023/03/09 04:45:13;;;;;;;7.50;2.37;;;;;;;6.69;100.00;93899.00;4989279;28;24464;-76
2023/03/09 04:47:40;;;;;;;8.38;2.33;;;;;;;6.67;100.00;93893.16;4988639;28;24440;-76
2023/03/09 04:50:07;;;;;;;11.18;2.30;;;;;;;6.61;100.00;93898.78;4985925;28;25002;-76
2023/03/09 04:52:33;;;;;;;8.50;2.00;;;;;;;6.62;100.00;93910.69;4990179;28;24433;-76
2023/03/09 04:55:00;;;;;;;8.40;2.40;;;;;;;6.67;100.00;93897.47;4986445;28;24533;-75
2023/03/09 04:57:27;;;;;;;8.38;2.38;;;;;;;6.73;100.00;93908.13;4991188;28;24436;-76
2023/03/09 04:59:54;;;;;;;8.13;2.53;;;;;;;6.76;100.00;93913.03;4989867;28;24523;-77
2023/03/09 05:02:22;;;;;;;8.07;2.30;;;;;;;6.69;100.00;93924.72;4990967;28;24436;-77
2023/03/09 05:04:49;;;;;;;8.13;2.33;;;;;;;6.73;100.00;93926.13;4989723;28;24440;-75
2023/03/09 05:07:15;;;;;;;12.23;2.47;;;;;;;6.75;100.00;93923.44;4991132;28;24472;-76
2023/03/09 05:09:42;;;;;;;10.10;2.13;;;;;;;6.69;100.00;93918.75;4990946;28;25185;-77
2023/03/09 05:12:08;;;;;;;8.73;2.42;;;;;;;6.74;100.00;93935.47;4990032;28;24433;-76
2023/03/09 05:14:35;;;;;;;8.02;1.88;;;;;;;6.82;100.00;93934.06;4987396;28;24428;-76
2023/03/09 05:17:02;;;;;;;8.85;2.13;;;;;;;6.77;100.00;93940.38;4990555;28;24431;-77
2023/03/09 05:19:29;;;;;;;6.53;1.73;;;;;;;6.79;100.00;93953.16;4990294;28;24463;-77
2023/03/09 05:21:56;;;;;;;6.53;2.30;;;;;;;6.82;100.00;93952.88;4981627;28;24506;-76
2023/03/09 05:24:22;;;;;;;11.65;2.65;;;;;;;6.78;100.00;93948.91;4992167;28;24444;-76
2023/03/09 05:26:49;;;;;;;13.63;2.22;;;;;;;6.80;100.00;93959.91;4990503;28;24429;-76
2023/03/09 05:29:15;;;;;;;9.35;2.67;;;;;;;6.86;100.00;93974.06;4988103;28;24449;-76
2023/03/09 05:31:42;;;;;;;13.13;2.58;;;;;;;6.93;100.00;93973.47;4982178;28;25061;-76
2023/03/09 05:34:08;;;;;;;9.10;2.38;;;;;;;6.94;100.00;93982.84;4989863;28;25002;-77
2023/03/09 05:36:36;;;;;;;8.73;2.30;;;;;;;7.07;100.00;93982.69;4985347;28;24449;-75
2023/03/09 05:39:03;;;;;;;5.80;2.30;;;;;;;6.99;100.00;93993.59;4990503;28;24437;-76
2023/03/09 05:41:29;;;;;;;10.63;2.67;;;;;;;7.07;100.00;93985.28;4990064;28;21279;-74
2023/03/09 05:43:56;;;;;;;8.10;2.72;;;;;;;7.14;100.00;94001.88;4980449;28;24831;-76
2023/03/09 05:46:23;;;;;;;9.13;2.47;;;;;;;7.08;100.00;93998.97;4985080;28;24441;-76
2023/03/09 05:48:49;;;;;;;11.15;2.67;;;;;;;7.12;100.00;94002.94;4986465;28;24523;-76
2023/03/09 05:51:16;;;;;;;16.75;2.60;;;;;;;7.07;100.00;94007.63;4983740;28;24436;-75
2023/03/09 05:53:44;;;;;;;6.75;2.13;;;;;;;7.01;100.00;94021.81;4990399;28;24990;-75
2023/03/09 05:56:10;;;;;;;7.23;2.00;;;;;;;7.11;100.00;94022.72;4990049;28;24444;-76
2023/03/09 05:58:37;;;;;;;7.77;2.53;;;;;;;7.08;100.00;94025.53;4987134;28;24437;-76
2023/03/09 06:01:03;;;;;;;9.13;2.43;;;;;;;7.01;100.00;94045.78;4989740;28;24456;-76
2023/03/09 06:03:30;;;;;;;8.23;2.47;;;;;;;7.02;100.00;94031.16;4990306;28;20799;-76
2023/03/09 06:06:01;;;;;;;6.55;2.08;;;;;;;7.02;100.00;94047.41;4990107;28;24440;-75
2023/03/09 06:08:28;;;;;;;8.45;2.42;;;;;;;6.95;100.00;94056.53;4991033;28;20781;-76
2023/03/09 06:10:58;;;;;;;14.10;2.17;;;;;;;6.97;100.00;94061.56;4990118;28;24514;-76
2023/03/09 06:13:24;;;;;;;15.30;2.50;;;;;;;6.93;100.00;94060.97;4981286;28;20852;-76
2023/03/09 06:15:51;;;;;;;5.38;1.75;;;;;;;6.96;100.00;94054.78;4982447;28;24470;-76
2023/03/09 06:18:17;;;;;;;8.15;2.50;;;;;;;7.01;100.00;94073.28;4990740;28;24444;-75
2023/03/09 06:20:44;;;;;;;9.93;2.08;;;;;;;6.93;100.00;94066.13;4990537;28;25142;-77
2023/03/09 06:23:11;;;;;;;8.13;2.00;;;;;;;7.01;100.00;94078.44;4989708;28;20776;-77
2023/03/09 06:25:38;;;;;;;6.03;2.13;;;;;;;6.91;100.00;94092.91;4990119;28;21247;-77
2023/03/09 06:28:06;;;;;;;7.77;2.33;;;;;;;6.90;100.00;94096.44;4985454;28;20774;-77
2023/03/09 06:30:33;;;;;;;8.63;2.00;;;;;;;6.93;100.00;94091.84;4985177;28;21188;-78
2023/03/09 06:32:59;;;;;;;9.98;2.08;;;;;;;6.94;100.00;94085.78;4990895;28;20780;-77
2023/03/09 06:35:26;;;;;;;11.30;2.15;;;;;;;6.96;100.00;94103.69;4993822;28;24436;-77
2023/03/09 06:37:52;;;;;;;7.30;1.98;;;;;;;6.96;100.00;94114.78;4993039;28;24467;-77
2023/03/09 06:40:19;;;;;;;7.50;1.90;;;;;;;6.90;100.00;94117.84;4996100;28;24492;-76
2023/03/09 06:42:47;;;;;;;9.38;2.10;;;;;;;7.01;100.00;94128.16;4997059;28;24432;-76
2023/03/09 06:45:15;;;;;;;15.23;1.98;;;;;;;6.99;100.00;94129.19;4995150;28;24433;-77
2023/03/09 06:47:41;;;;;;;6.85;1.90;;;;;;;6.91;100.00;94140.06;4995804;28;21281;-77
2023/03/09 06:50:09;;;;;;;7.20;2.03;;;;;;;7.09;100.00;94137.88;4992473;28;24448;-77
2023/03/09 06:52:35;;;;;;;12.20;2.08;;;;;;;6.98;100.00;94136.09;4997285;28;20814;-76
2023/03/09 06:55:02;;;;;;;5.63;1.90;;;;;;;6.92;100.00;94136.53;4993383;28;20776;-77
2023/03/09 06:57:28;;;;;;;8.65;1.90;;;;;;;7.00;100.00;94134.22;4993422;28;20783;-77
2023/03/09 06:59:54;;;;;;;6.43;1.73;;;;;;;7.00;100.00;94126.50;4989400;28;20817;-77
2023/03/09 07:02:23;;;;;;;9.70;1.80;;;;;;;7.09;100.00;94135.28;4993623;28;24448;-76
2023/03/09 07:04:50;;;;;;;8.10;2.10;;;;;;;7.05;100.00;94143.38;4992668;28;21185;-76
2023/03/09 07:07:18;;;;;;;6.40;1.70;;;;;;;7.18;100.00;94129.44;4990297;28;20784;-77
2023/03/09 07:09:45;;;;;;;5.05;1.80;;;;;;;7.24;100.00;94130.75;4988579;28;20817;-77
2023/03/09 07:12:11;;;;;;;6.07;1.95;;;;;;;7.24;100.00;94138.47;4993134;28;24459;-76
2023/03/09 07:14:37;;;;;;;4.32;1.70;;;;;;;7.35;100.00;94150.53;4987213;28;24441;-77
2023/03/09 07:17:04;;;;;;;5.68;1.90;;;;;;;7.51;100.00;94163.88;4993056;28;24448;-77
2023/03/09 07:19:32;;;;;;;8.80;2.38;;;;;;;7.45;100.00;94167.75;4992925;28;24800;-78
2023/03/09 07:21:58;;;;;;;6.57;2.00;;;;;;;7.42;100.00;94164.59;4985838;28;20788;-78
2023/03/09 07:24:25;;;;;;;7.60;1.95;;;;;;;7.48;100.00;94187.28;4985231;28;20784;-77
2023/03/09 07:26:52;;;;;;;4.38;1.73;;;;;;;7.82;100.00;94177.78;4982330;28;20774;-76
2023/03/09 07:29:19;;;;;;;8.55;1.52;;;;;;;7.87;100.00;94192.91;4987094;28;24444;-76
2023/03/09 07:31:46;;;;;;;4.63;1.60;;;;;;;8.12;100.00;94192.66;4993780;28;20815;-79
2023/03/09 07:34:13;;;;;;;12.17;4.13;;;;;;;8.28;100.00;94192.25;4992978;28;21127;-77
2023/03/09 07:36:40;;;;;;;6.53;1.70;;;;;;;8.45;100.00;94207.28;4992147;28;20776;-77
2023/03/09 07:39:07;;;;;;;3.55;1.55;;;;;;;8.40;100.00;94224.84;4993027;28;20829;-79
2023/03/09 07:41:33;;;;;;;10.65;1.92;;;;;;;8.31;100.00;94217.81;4990893;28;25025;-79
2023/03/09 07:44:00;;;;;;;5.50;1.87;;;;;;;8.17;100.00;94226.63;4991998;28;24433;-79
2023/03/09 07:46:27;;;;;;;4.43;1.53;;;;;;;8.06;100.00;94231.81;4991372;28;24521;-78
2023/03/09 07:48:53;;;;;;;3.90;1.67;;;;;;;8.04;100.00;94241.41;4987922;28;24444;-79
2023/03/09 07:51:21;;;;;;;6.22;1.80;;;;;;;8.03;100.00;94246.69;4985903;28;24437;-75
2023/03/09 07:53:49;;;;;;;7.25;1.70;;;;;;;7.92;100.00;94250.91;4988727;28;20826;-76
2023/03/09 07:56:15;;;;;;;5.05;1.80;;;;;;;7.98;100.00;94253.03;4992961;28;24448;-79
2023/03/09 07:58:42;;;;;;;6.55;1.42;;;;;;;8.04;100.00;94250.91;4987354;28;24444;-79
2023/03/09 08:01:14;;;;;;;4.20;1.60;;;;;;;8.25;100.00;94251.81;4993352;28;20823;-78
2023/03/09 08:03:41;;;;;;;4.75;1.50;;;;;;;8.12;100.00;94261.44;4990653;28;20696;-79
2023/03/09 08:06:09;;;;;;;5.65;1.55;;;;;;;8.26;100.00;94274.09;4992893;28;24440;-79
2023/03/09 08:08:36;;;;;;;6.53;1.60;;;;;;;8.07;100.00;94271.28;4993628;28;24816;-79
2023/03/09 08:11:04;;;;;;;5.82;1.55;;;;;;;7.97;100.00;94279.75;4992013;28;24435;-79
2023/03/09 08:13:32;;;;;;;7.25;1.85;;;;;;;7.95;100.00;94281.59;4996115;28;24436;-79
2023/03/09 08:16:01;;;;;;;7.18;1.77;;;;;;;7.92;100.00;94288.75;4991233;28;20797;-79
2023/03/09 08:18:27;;;;;;;6.60;1.38;;;;;;;7.89;100.00;94288.97;4992337;28;24452;-79
2023/03/09 08:20:54;;;;;;;4.35;1.23;;;;;;;7.86;100.00;94295.22;4990887;28;24479;-76
2023/03/09 08:23:20;;;;;;;3.20;1.30;;;;;;;7.84;100.00;94293.66;4983007;28;24441;-77
2023/03/09 08:25:54;;;;;;;5.90;1.25;;;;;;;7.79;100.00;94301.75;4986784;28;24441;-79
2023/03/09 08:28:22;;;;;;;4.55;1.50;;;;;;;7.79;100.00;94301.75;4991085;28;24489;-79
2023/03/09 08:30:49;;;;;;;5.20;1.58;;;;;;;7.81;100.00;94307.59;4992309;28;24440;-80
2023/03/09 08:33:16;;;;;;;4.55;1.60;;;;;;;7.82;100.00;94306.66;4993216;28;24432;-78
2023/03/09 08:35:42;;;;;;;6.32;1.58;;;;;;;7.81;100.00;94310.19;4989420;28;25017;-79
2023/03/09 08:38:08;;;;;;;3.20;1.20;;;;;;;7.85;100.00;94329.63;4988336;28;24990;-79
2023/03/09 08:40:35;;;;;;;3.78;1.40;;;;;;;7.87;100.00;94332.94;4987028;28;24457;-78
2023/03/09 08:43:02;;;;;;;5.05;1.70;;;;;;;7.78;100.00;94340.50;4990937;28;20842;-78
2023/03/09 08:45:30;;;;;;;5.70;1.77;;;;;;;7.84;100.00;94351.19;4986220;28;24457;-78
2023/03/09 08:47:56;;;;;;;5.65;1.40;;;;;;;7.79;100.00;94360.19;4989994;28;24445;-78
2023/03/09 08:50:23;;;;;;;8.85;3.00;;;;;;;7.74;100.00;94366.50;4988518;28;24452;-78
2023/03/09 08:52:50;;;;;;;6.85;2.30;;;;;;;7.62;100.00;94370.00;4990313;28;24958;-78
2023/03/09 08:55:17;;;;;;;8.50;2.15;;;;;;;7.59;100.00;94380.53;4987794;28;24451;-78
2023/03/09 08:57:43;;;;;;;10.30;2.55;;;;;;;7.50;100.00;94387.19;4981467;28;21200;-79
2023/03/09 09:00:11;;;;;;;6.95;2.25;;;;;;;7.40;100.00;94382.81;4982890;28;24541;-78
2023/03/09 09:02:39;;;;;;;7.35;2.10;;;;;;;7.46;100.00;94388.34;4991585;28;20814;-76
2023/03/09 09:05:07;;;;;;;5.45;2.03;;;;;;;7.36;100.00;94381.38;4982386;28;20780;-77
2023/03/09 09:07:34;;;;;;;5.57;1.70;;;;;;;7.49;100.00;94380.41;4990981;28;24440;-77
2023/03/09 09:10:01;;;;;;;7.00;1.83;;;;;;;7.80;100.00;94385.88;4992065;28;24447;-78
2023/03/09 09:12:28;;;;;;;6.23;1.77;;;;;;;8.02;100.00;94369.63;4996382;28;24440;-76
2023/03/09 09:14:54;;;;;;;3.88;1.45;;;;;;;8.19;100.00;94368.34;4993612;28;24448;-78
2023/03/09 09:17:21;;;;;;;3.78;1.17;;;;;;;8.24;100.00;94376.56;4996575;28;24433;-77
2023/03/09 09:19:51;;;;;;;5.97;1.40;;;;;;;8.54;100.00;94383.75;4995150;28;24441;-75
2023/03/09 09:22:18;;;;;;;5.22;1.23;;;;;;;8.63;100.00;94392.53;4992483;28;24543;-77
2023/03/09 09:24:45;;;;;;;3.55;1.42;;;;;;;8.60;100.00;94377.28;4984662;28;24441;-76
2023/03/09 09:27:11;;;;;;;2.53;1.02;;;;;;;8.63;100.00;94379.63;4987987;28;24891;-76
2023/03/09 09:29:38;;;;;;;1.55;0.80;;;;;;;8.66;100.00;94379.41;4990677;28;24441;-76
2023/03/09 09:32:08;;;;;;;3.08;1.05;;;;;;;8.47;100.00;94388.56;4991134;28;24792;-78
2023/03/09 09:34:35;;;;;;;2.38;0.85;;;;;;;8.40;100.00;94394.31;4995683;28;24535;-78
2023/03/09 09:37:05;;;;;;;3.65;1.08;;;;;;;8.45;100.00;94389.59;4994776;28;24432;-77
2023/03/09 09:39:32;;;;;;;4.18;1.10;;;;;;;8.38;100.00;94396.16;4996521;28;24463;-78
2023/03/09 09:42:01;;;;;;;3.42;1.15;;;;;;;8.36;100.00;94403.19;4994407;28;24451;-78
2023/03/09 09:44:31;;;;;;;2.90;1.17;;;;;;;8.28;100.00;94398.59;4995544;28;20775;-77
2023/03/09 09:47:03;;;;;;;2.95;1.00;;;;;;;8.31;100.00;94405.31;4995806;28;24437;-78
2023/03/09 09:49:32;;;;;;;3.78;1.02;;;;;;;8.66;100.00;94407.78;4992454;28;24440;-78
2023/03/09 09:52:24;;;;;;;3.58;1.10;;;;;;;8.77;100.00;94406.97;4994994;28;24432;-77
2023/03/09 09:54:55;;;;;;;2.30;0.93;;;;;;;8.86;100.00;94417.41;4992524;28;20772;-78
2023/03/09 09:57:29;;;;;;;2.97;0.80;;;;;;;8.87;100.00;94420.81;4996178;28;20791;-77
2023/03/09 10:00:02;;;;;;;5.05;1.23;;;;;;;8.82;100.00;94434.06;4994895;28;24436;-77
2023/03/09 10:02:39;;;;;;;3.05;1.13;;;;;;;8.77;100.00;94443.94;4993502;28;25030;-76
2023/03/09 10:05:13;;;;;;;3.28;1.17;;;;;;;8.72;100.00;94443.47;4990248;28;24433;-77
2023/03/09 10:07:41;;;;;;;3.08;1.05;;;;;;;8.58;100.00;94446.28;4990366;28;24433;-78
2023/03/09 10:10:18;;;;;;;4.78;1.30;;;;;;;8.36;100.00;94453.00;4994039;28;24495;-78
2023/03/09 10:12:45;;;;;;;2.88;0.80;;;;;;;8.43;100.00;94461.97;4995441;28;20798;-78
2023/03/09 10:15:15;;;;;;;3.78;1.05;;;;;;;8.41;100.00;94460.44;4988591;28;24934;-78
2023/03/09 10:17:46;;;;;;;2.37;1.10;;;;;;;8.17;100.00;94463.06;4987260;28;24484;-78
2023/03/09 10:20:18;;;;;;;3.25;0.77;;;;;;;8.12;100.00;94463.41;4989497;28;21177;-77
2023/03/09 10:22:50;;;;;;;5.47;1.17;;;;;;;8.16;100.00;94462.25;4984401;28;24462;-77
2023/03/09 10:25:20;;;;;;;3.30;0.85;;;;;;;8.12;100.00;94460.00;4996738;28;20773;-78
2023/03/09 10:27:55;;;;;;;2.42;1.00;;;;;;;8.20;100.00;94455.94;4994490;28;20840;-78
2023/03/09 10:30:33;;;;;;;2.97;1.05;;;;;;;8.19;100.00;94462.03;4986351;28;20706;-77
2023/03/09 10:33:07;;;;;;;3.80;1.20;;;;;;;8.29;100.00;94454.41;4982796;28;20746;-77
2023/03/09 10:35:39;;;;;;;3.00;1.02;;;;;;;8.32;100.00;94455.94;4988863;28;20819;-77
2023/03/09 10:38:11;;;;;;;3.50;1.20;;;;;;;8.46;100.00;94460.94;4990117;28;24471;-78
2023/03/09 10:40:43;;;;;;;3.28;1.13;;;;;;;8.64;100.00;94456.13;4993325;28;24443;-77
2023/03/09 10:43:15;;;;;;;2.45;1.02;;;;;;;8.86;100.00;94458.72;4993709;28;20830;-77
2023/03/09 10:45:42;;;;;;;2.70;1.03;;;;;;;8.95;100.00;94463.16;5002476;28;24537;-77
2023/03/09 10:48:20;;;;;;;4.38;1.33;;;;;;;9.21;100.00;94457.75;4997512;28;20773;-78
2023/03/09 10:50:56;;;;;;;4.45;1.30;;;;;;;9.39;100.00;94453.72;4991127;28;21138;-77
2023/03/09 10:53:29;;;;;;;5.32;1.55;;;;;;;9.49;100.00;94464.13;4988672;28;24524;-78
2023/03/09 10:56:03;;;;;;;4.60;1.40;;;;;;;9.64;100.00;94465.50;4985367;28;24429;-78
2023/03/09 10:58:30;;;;;;;5.32;1.50;;;;;;;9.53;100.00;94460.38;4988157;28;24820;-78
2023/03/09 11:01:00;;;;;;;7.13;1.60;;;;;;;9.51;100.00;94469.19;4993024;28;24983;-78
2023/03/09 11:03:33;;;;;;;5.07;1.60;;;;;;;9.45;100.00;94468.75;4993700;28;24429;-78
2023/03/09 11:06:25;;;;;;;6.03;1.52;;;;;;;9.55;100.00;94486.91;4986100;28;24432;-78
2023/03/09 11:09:00;;;;;;;5.90;1.73;;;;;;;9.44;100.00;94468.84;4989805;28;25238;-78
2023/03/09 11:11:28;;;;;;;6.07;1.70;;;;;;;9.35;100.00;94470.41;4987405;28;24436;-78
2023/03/09 11:13:55;;;;;;;5.43;1.88;;;;;;;9.49;100.00;94471.88;4991187;28;24464;-78
2023/03/09 11:16:24;;;;;;;6.60;1.83;;;;;;;9.40;100.00;94468.25;4988309;28;24967;-77
2023/03/09 11:19:06;;;;;;;7.82;2.05;;;;;;;9.58;100.00;94468.56;4984820;28;24448;-77
2023/03/09 11:21:33;;;;;;;5.43;1.70;;;;;;;9.68;100.00;94464.31;4983399;28;24543;-78
2023/03/09 11:24:03;;;;;;;4.50;1.67;;;;;;;9.51;100.00;94474.34;4990163;28;24515;-78
2023/03/09 11:26:35;;;;;;;4.82;1.42;;;;;;;9.61;100.00;94478.69;4992802;28;24437;-78
2023/03/09 11:29:11;;;;;;;6.63;1.90;;;;;;;9.75;100.00;94476.72;4991436;28;24444;-78
2023/03/09 11:31:39;;;;;;;5.47;1.63;;;;;;;9.80;100.00;94472.03;4988440;28;24448;-78
2023/03/09 11:34:08;;;;;;;6.13;1.50;;;;;;;9.73;100.00;94476.88;4987582;28;24448;-78
2023/03/09 11:36:41;;;;;;;4.88;1.52;;;;;;;9.75;100.00;94481.91;4987406;28;24519;-77
2023/03/09 11:39:19;;;;;;;7.88;2.38;;;;;;;9.91;100.00;94488.31;4992885;28;24449;-78
2023/03/09 11:41:48;;;;;;;4.13;1.77;;;;;;;9.86;100.00;94482.72;4981027;28;24453;-78
2023/03/09 11:44:24;;;;;;;6.00;1.23;;;;;;;9.87;100.00;94491.28;4988777;28;24800;-78